createdAt,value
2022-11-29T00:01:37.061Z,100399.34
2022-11-29T00:03:41.516Z,100393.94
2022-11-29T00:05:44.487Z,100403.56
2022-11-29T00:07:47.680Z,100401.16
2022-11-29T00:09:50.723Z,100406.19
2022-11-29T00:12:10.978Z,100407.94
2022-11-29T00:14:16.213Z,100405.31
2022-11-29T00:16:19.333Z,100407.00
2022-11-29T00:18:22.519Z,100408.81
2022-11-29T00:20:26.773Z,100406.94
2022-11-29T00:22:30.294Z,100409.59
2022-11-29T00:24:33.791Z,100413.03
2022-11-29T00:26:37.063Z,100418.28
2022-11-29T00:28:40.047Z,100405.13
2022-11-29T00:30:42.977Z,100407.72
2022-11-29T00:32:46.208Z,100414.78
2022-11-29T00:34:49.838Z,100414.72
2022-11-29T00:36:54.061Z,100409.34
2022-11-29T00:38:57.192Z,100416.41
2022-11-29T00:41:00.112Z,100422.50
2022-11-29T00:43:03.236Z,100408.56
2022-11-29T00:45:07.101Z,100411.09
2022-11-29T00:47:10.320Z,100417.28
2022-11-29T00:49:13.272Z,100410.19
2022-11-29T00:51:16.527Z,100405.78
2022-11-29T00:53:20.972Z,100406.63
2022-11-29T00:55:24.228Z,100406.63
2022-11-29T00:57:27.072Z,100410.19
2022-11-29T00:59:30.571Z,100412.66
2022-11-29T01:01:33.561Z,100405.69
2022-11-29T01:03:37.542Z,100410.97
2022-11-29T01:05:41.388Z,100409.34
2022-11-29T01:07:44.864Z,100410.16
2022-11-29T01:09:49.218Z,100408.25
2022-11-29T01:11:52.138Z,100409.22
2022-11-29T01:13:56.736Z,100415.25
2022-11-29T01:15:59.840Z,100421.38
2022-11-29T01:18:03.766Z,100414.38
2022-11-29T01:20:10.914Z,100416.97
2022-11-29T01:22:14.408Z,100415.28
2022-11-29T01:24:17.319Z,100415.41
2022-11-29T01:26:25.577Z,100423.09
2022-11-29T01:28:29.129Z,100421.56
2022-11-29T01:30:33.720Z,100419.63
2022-11-29T01:32:36.878Z,100416.25
2022-11-29T01:34:40.289Z,100422.38
2022-11-29T01:36:43.250Z,100418.84
2022-11-29T01:38:46.318Z,100421.63
2022-11-29T01:40:59.220Z,100424.38
2022-11-29T01:43:03.739Z,100424.25
2022-11-29T01:45:22.379Z,100428.47
2022-11-29T01:47:25.858Z,100432.03
2022-11-29T01:49:31.154Z,100438.88
2022-11-29T01:51:36.718Z,100438.84
2022-11-29T01:53:39.954Z,100439.75
2022-11-29T01:55:48.221Z,100439.53
2022-11-29T01:57:51.392Z,100444.97
2022-11-29T01:59:59.556Z,100440.53
2022-11-29T02:02:07.606Z,100446.59
2022-11-29T02:04:10.759Z,100445.78
2022-11-29T02:06:14.556Z,100447.44
2022-11-29T02:08:21.353Z,100445.66
2022-11-29T02:10:34.694Z,100445.66
2022-11-29T02:12:45.077Z,100439.34
2022-11-29T02:15:09.950Z,100448.81
2022-11-29T02:17:20.230Z,100450.41
2022-11-29T02:19:53.336Z,100450.50
2022-11-29T02:21:58.733Z,100453.03
2022-11-29T02:24:29.671Z,100456.47
2022-11-29T02:26:50.467Z,100451.25
2022-11-29T02:29:17.055Z,100459.97
2022-11-29T02:31:53.678Z,100451.22
2022-11-29T02:34:21.318Z,100453.09
2022-11-29T02:36:46.807Z,100457.41
2022-11-29T02:39:17.183Z,100454.84
2022-11-29T02:41:32.490Z,100453.03
2022-11-29T02:44:16.575Z,100454.78
2022-11-29T02:46:34.726Z,100463.63
2022-11-29T02:48:52.429Z,100460.88
2022-11-29T02:51:13.713Z,100468.78
2022-11-29T02:53:21.452Z,100464.50
2022-11-29T02:55:30.663Z,100465.50
2022-11-29T02:57:40.254Z,100460.28
2022-11-29T02:59:49.748Z,100465.63
2022-11-29T03:01:59.285Z,100467.44
2022-11-29T03:04:07.642Z,100474.44
2022-11-29T03:06:21.178Z,100473.53
2022-11-29T03:08:27.935Z,100476.28
2022-11-29T03:10:36.162Z,100483.94
2022-11-29T03:12:41.535Z,100478.78
2022-11-29T03:14:53.740Z,100480.50
2022-11-29T03:17:04.164Z,100481.44
2022-11-29T03:19:19.613Z,100481.66
2022-11-29T03:21:31.337Z,100487.88
2022-11-29T03:23:38.191Z,100494.72
2022-11-29T03:25:44.232Z,100490.25
2022-11-29T03:27:50.047Z,100489.44
2022-11-29T03:29:57.837Z,100482.56
2022-11-29T03:32:03.595Z,100495.66
2022-11-29T03:34:12.004Z,100494.84
2022-11-29T03:36:23.579Z,100494.91
2022-11-29T03:38:31.116Z,100492.31
2022-11-29T03:40:41.605Z,100499.38
2022-11-29T03:42:49.355Z,100504.03
2022-11-29T03:44:57.443Z,100501.28
2022-11-29T03:47:05.172Z,100505.84
2022-11-29T03:49:12.847Z,100503.09
2022-11-29T03:51:19.243Z,100509.13
2022-11-29T03:53:28.489Z,100510.94
2022-11-29T03:55:45.202Z,100512.66
2022-11-29T03:57:56.156Z,100512.59
2022-11-29T04:00:05.646Z,100514.47
2022-11-29T04:02:55.556Z,100517.91
2022-11-29T04:05:17.321Z,100518.03
2022-11-29T04:07:36.237Z,100515.34
2022-11-29T04:09:47.777Z,100524.22
2022-11-29T04:12:22.638Z,100528.56
2022-11-29T04:14:57.877Z,100524.97
2022-11-29T04:17:33.469Z,100526.75
2022-11-29T04:20:19.174Z,100527.84
2022-11-29T04:22:33.668Z,100531.44
2022-11-29T04:25:17.210Z,100534.78
2022-11-29T04:27:31.736Z,100540.97
2022-11-29T04:30:16.196Z,100538.56
2022-11-29T04:32:47.242Z,100544.00
2022-11-29T04:35:07.139Z,100549.91
2022-11-29T04:37:36.635Z,100551.66
2022-11-29T04:40:04.166Z,100555.13
2022-11-29T04:42:30.233Z,100556.81
2022-11-29T04:44:46.917Z,100558.63
2022-11-29T04:47:12.242Z,100563.75
2022-11-29T04:49:31.388Z,100562.84
2022-11-29T04:51:49.128Z,100562.81
2022-11-29T04:53:58.305Z,100561.13
2022-11-29T04:56:17.116Z,100568.13
2022-11-29T04:58:25.577Z,100560.38
2022-11-29T05:00:31.386Z,100564.78
2022-11-29T05:02:38.352Z,100568.22
2022-11-29T05:04:50.117Z,100558.63
2022-11-29T05:07:11.982Z,100564.84
2022-11-29T05:09:24.546Z,100567.34
2022-11-29T05:11:36.868Z,100564.97
2022-11-29T05:13:51.104Z,100567.47
2022-11-29T05:16:07.986Z,100572.63
2022-11-29T05:18:19.770Z,100585.78
2022-11-29T05:20:30.444Z,100584.88
2022-11-29T05:22:36.724Z,100592.88
2022-11-29T05:24:51.643Z,100586.91
2022-11-29T05:27:01.001Z,100584.38
2022-11-29T05:29:07.715Z,100586.09
2022-11-29T05:31:22.836Z,100591.44
2022-11-29T05:33:37.761Z,100592.16
2022-11-29T05:35:52.890Z,100600.00
2022-11-29T05:37:58.616Z,100601.75
2022-11-29T05:40:25.015Z,100601.66
2022-11-29T05:42:45.878Z,100607.78
2022-11-29T05:44:54.068Z,100600.78
2022-11-29T05:46:58.764Z,100601.66
2022-11-29T05:49:11.923Z,100607.88
2022-11-29T05:51:22.062Z,100611.41
2022-11-29T05:53:29.582Z,100607.78
2022-11-29T05:55:41.652Z,100614.72
2022-11-29T05:57:49.177Z,100611.22
2022-11-29T05:59:55.140Z,100619.13
2022-11-29T06:02:05.412Z,100616.47
2022-11-29T06:04:15.159Z,100619.16
2022-11-29T06:06:24.309Z,100620.03
2022-11-29T06:08:36.103Z,100624.31
2022-11-29T06:10:41.030Z,100625.25
2022-11-29T06:12:46.863Z,100632.22
2022-11-29T06:15:13.664Z,100637.47
2022-11-29T06:17:39.039Z,100641.00
2022-11-29T06:20:04.225Z,100648.09
2022-11-29T06:22:21.392Z,100646.31
2022-11-29T06:24:39.097Z,100641.09
2022-11-29T06:26:59.647Z,100641.34
2022-11-29T06:29:22.725Z,100651.78
2022-11-29T06:31:30.416Z,100651.75
2022-11-29T06:33:39.726Z,100656.16
2022-11-29T06:35:47.090Z,100655.22
2022-11-29T06:37:52.393Z,100657.28
2022-11-29T06:39:56.854Z,100657.56
2022-11-29T06:41:59.841Z,100658.53
2022-11-29T06:44:03.555Z,100660.19
2022-11-29T06:46:12.008Z,100667.97
2022-11-29T06:48:21.448Z,100673.97
2022-11-29T06:50:34.976Z,100676.53
2022-11-29T06:52:44.703Z,100681.91
2022-11-29T06:54:56.585Z,100679.22
2022-11-29T06:57:06.866Z,100680.97
2022-11-29T06:59:15.397Z,100682.91
2022-11-29T07:01:25.545Z,100684.91
2022-11-29T07:03:44.296Z,100690.66
2022-11-29T07:05:47.742Z,100692.69
2022-11-29T07:07:51.638Z,100701.69
2022-11-29T07:09:57.331Z,100691.94
2022-11-29T07:12:01.003Z,100697.19
2022-11-29T07:14:04.638Z,100693.69
2022-11-29T07:16:15.453Z,100700.81
2022-11-29T07:18:24.253Z,100700.75
2022-11-29T07:20:37.639Z,100697.09
2022-11-29T07:22:53.587Z,100702.38
2022-11-29T07:25:01.113Z,100704.16
2022-11-29T07:27:09.924Z,100715.56
2022-11-29T07:29:22.243Z,100708.66
2022-11-29T07:31:33.073Z,100711.97
2022-11-29T07:33:45.017Z,100711.09
2022-11-29T07:35:54.308Z,100711.22
2022-11-29T07:38:04.063Z,100711.03
2022-11-29T07:40:14.407Z,100715.41
2022-11-29T07:42:20.697Z,100721.63
2022-11-29T07:44:27.813Z,100735.69
2022-11-29T07:46:32.124Z,100733.13
2022-11-29T07:48:35.261Z,100731.47
2022-11-29T07:50:38.425Z,100733.03
2022-11-29T07:52:42.888Z,100738.19
2022-11-29T07:54:46.350Z,100731.94
2022-11-29T07:56:50.701Z,100733.13
2022-11-29T07:58:54.389Z,100733.28
2022-11-29T08:00:57.624Z,100739.28
2022-11-29T08:03:00.564Z,100735.59
2022-11-29T08:05:04.150Z,100738.28
2022-11-29T08:07:07.036Z,100740.81
2022-11-29T08:09:11.468Z,100747.06
2022-11-29T08:11:15.861Z,100736.53
2022-11-29T08:13:20.561Z,100743.56
2022-11-29T08:15:25.138Z,100740.78
2022-11-29T08:17:28.079Z,100747.06
2022-11-29T08:19:31.116Z,100746.97
2022-11-29T08:21:33.964Z,100746.88
2022-11-29T08:23:36.813Z,100739.69
2022-11-29T08:25:45.673Z,100744.09
2022-11-29T08:27:48.788Z,100750.09
2022-11-29T08:29:52.035Z,100755.44
2022-11-29T08:31:55.416Z,100749.09
2022-11-29T08:34:00.582Z,100747.38
2022-11-29T08:36:06.741Z,100752.56
2022-11-29T08:38:09.883Z,100757.06
2022-11-29T08:40:13.695Z,100755.97
2022-11-29T08:42:18.009Z,100760.63
2022-11-29T08:44:21.039Z,100764.44
2022-11-29T08:46:44.349Z,100756.66
2022-11-29T08:48:47.231Z,100763.53
2022-11-29T08:50:50.769Z,100760.91
2022-11-29T08:53:11.031Z,100768.81
2022-11-29T08:55:14.109Z,100771.44
2022-11-29T08:57:39.313Z,100763.56
2022-11-29T08:59:44.941Z,100774.09
2022-11-29T09:01:47.905Z,100775.78
2022-11-29T09:04:07.716Z,100780.06
2022-11-29T09:06:13.021Z,100783.75
2022-11-29T09:08:16.383Z,100780.72
2022-11-29T09:10:19.369Z,100774.22
2022-11-29T09:12:24.369Z,100780.41
2022-11-29T09:14:27.442Z,100783.97
2022-11-29T09:16:34.338Z,100790.84
2022-11-29T09:18:38.428Z,100796.03
2022-11-29T09:20:44.077Z,100786.72
2022-11-29T09:22:47.031Z,100793.91
2022-11-29T09:24:50.159Z,100798.44
2022-11-29T09:26:53.501Z,100795.34
2022-11-29T09:29:01.346Z,100796.84
2022-11-29T09:31:07.756Z,100801.03
2022-11-29T09:33:10.805Z,100806.94
2022-11-29T09:35:13.818Z,100805.44
2022-11-29T09:37:16.887Z,100805.97
2022-11-29T09:39:20.293Z,100809.81
2022-11-29T09:41:36.083Z,100807.97
2022-11-29T09:43:48.579Z,100815.53
2022-11-29T09:45:58.412Z,100817.97
2022-11-29T09:48:27.857Z,100823.13
2022-11-29T09:50:35.428Z,100826.59
2022-11-29T09:52:45.014Z,100828.31
2022-11-29T09:54:53.279Z,100831.78
2022-11-29T09:56:57.388Z,100830.16
2022-11-29T09:59:02.031Z,100829.97
2022-11-29T10:01:10.117Z,100828.09
2022-11-29T10:03:16.328Z,100832.44
2022-11-29T10:05:23.233Z,100831.59
2022-11-29T10:07:29.507Z,100830.63
2022-11-29T10:09:34.939Z,100822.72
2022-11-29T10:11:41.253Z,100822.72
2022-11-29T10:13:47.014Z,100828.09
2022-11-29T10:15:53.014Z,100823.69
2022-11-29T10:18:02.518Z,100828.16
2022-11-29T10:20:12.569Z,100825.47
2022-11-29T10:22:19.523Z,100821.84
2022-11-29T10:24:24.226Z,100826.19
2022-11-29T10:26:31.996Z,100825.63
2022-11-29T10:28:39.033Z,100824.50
2022-11-29T10:30:42.982Z,100821.81
2022-11-29T10:32:48.882Z,100823.50
2022-11-29T10:34:53.451Z,100817.38
2022-11-29T10:37:00.047Z,100821.91
2022-11-29T10:39:11.421Z,100824.78
2022-11-29T10:41:20.372Z,100830.84
2022-11-29T10:43:23.735Z,100827.97
2022-11-29T10:45:29.939Z,100830.56
2022-11-29T10:47:33.122Z,100825.31
2022-11-29T10:49:40.221Z,100833.19
2022-11-29T10:51:45.164Z,100822.41
2022-11-29T10:53:48.055Z,100824.88
2022-11-29T10:55:54.724Z,100835.38
2022-11-29T10:58:15.964Z,100823.78
2022-11-29T11:00:19.525Z,100824.47
2022-11-29T11:02:24.890Z,100830.44
2022-11-29T11:04:30.517Z,100832.94
2022-11-29T11:06:46.343Z,100820.72
2022-11-29T11:08:51.766Z,100826.81
2022-11-29T11:11:01.155Z,100821.50
2022-11-29T11:13:07.040Z,100825.56
2022-11-29T11:15:28.605Z,100826.34
2022-11-29T11:17:32.986Z,100826.22
2022-11-29T11:19:36.134Z,100827.75
2022-11-29T11:21:39.786Z,100824.19
2022-11-29T11:23:53.862Z,100820.53
2022-11-29T11:25:58.490Z,100816.16
2022-11-29T11:28:15.384Z,100812.25
2022-11-29T11:30:21.818Z,100815.56
2022-11-29T11:32:24.853Z,100819.09
2022-11-29T11:34:34.115Z,100816.75
2022-11-29T11:36:37.494Z,100819.59
2022-11-29T11:38:42.018Z,100829.09
2022-11-29T11:40:46.459Z,100823.75
2022-11-29T11:42:49.413Z,100828.94
2022-11-29T11:44:53.629Z,100827.66
2022-11-29T11:46:57.038Z,100826.50
2022-11-29T11:49:00.457Z,100831.16
2022-11-29T11:51:03.292Z,100832.78
2022-11-29T11:53:08.136Z,100833.88
2022-11-29T11:55:26.624Z,100837.31
2022-11-29T11:57:31.417Z,100843.31
2022-11-29T11:59:34.411Z,100830.13
2022-11-29T12:01:38.770Z,100832.97
2022-11-29T12:03:54.246Z,100831.72
2022-11-29T12:06:00.385Z,100836.06
2022-11-29T12:08:08.506Z,100837.09
2022-11-29T12:10:17.337Z,100835.00
2022-11-29T12:12:24.031Z,100836.28
2022-11-29T12:14:34.415Z,100832.16
2022-11-29T12:16:39.759Z,100828.59
2022-11-29T12:18:45.521Z,100829.28
2022-11-29T12:20:53.962Z,100830.22
2022-11-29T12:23:06.639Z,100831.88
2022-11-29T12:25:16.561Z,100841.34
2022-11-29T12:27:19.985Z,100843.97
2022-11-29T12:29:33.299Z,100846.59
2022-11-29T12:31:44.761Z,100852.66
2022-11-29T12:33:56.242Z,100853.69
2022-11-29T12:36:15.542Z,100859.78
2022-11-29T12:38:29.976Z,100861.72
2022-11-29T12:40:36.391Z,100856.44
2022-11-29T12:42:49.133Z,100857.16
2022-11-29T12:44:58.213Z,100862.28
2022-11-29T12:49:40.796Z,100863.69
2022-11-29T12:51:49.676Z,100863.16
2022-11-29T12:54:05.583Z,100862.06
2022-11-29T12:56:16.629Z,100862.28
2022-11-29T12:58:24.810Z,100859.47
2022-11-29T13:00:34.180Z,100859.19
2022-11-29T13:02:57.991Z,100864.19
2022-11-29T13:05:05.042Z,100871.66
2022-11-29T13:07:12.820Z,100864.34
2022-11-29T13:09:25.618Z,100864.34
2022-11-29T13:11:30.835Z,100867.75
2022-11-29T13:13:39.327Z,100869.50
2022-11-29T13:15:49.807Z,100869.31
2022-11-29T13:17:57.364Z,100868.81
2022-11-29T13:20:05.973Z,100864.00
2022-11-29T13:22:15.164Z,100871.91
2022-11-29T13:24:24.547Z,100869.38
2022-11-29T13:26:28.365Z,100869.63
2022-11-29T13:28:33.763Z,100869.50
2022-11-29T13:30:37.628Z,100866.31
2022-11-29T13:32:51.421Z,100877.00
2022-11-29T13:34:55.999Z,100878.28
2022-11-29T13:37:06.272Z,100877.50
2022-11-29T13:39:17.463Z,100880.03
2022-11-29T13:41:27.033Z,100882.63
2022-11-29T13:43:35.261Z,100880.91
2022-11-29T13:45:42.486Z,100880.03
2022-11-29T13:47:51.121Z,100881.91
2022-11-29T13:49:57.637Z,100882.72
2022-11-29T13:52:06.677Z,100889.88
2022-11-29T13:54:28.345Z,100896.03
2022-11-29T13:56:36.701Z,100887.22
2022-11-29T13:58:40.822Z,100889.53
2022-11-29T14:00:50.677Z,100892.88
2022-11-29T14:02:55.619Z,100888.38
2022-11-29T14:04:59.277Z,100899.06
2022-11-29T14:07:08.580Z,100900.16
2022-11-29T14:09:36.408Z,100894.88
2022-11-29T14:11:47.660Z,100900.19
2022-11-29T14:13:55.312Z,100903.00
2022-11-29T14:16:00.484Z,100907.53
2022-11-29T14:18:08.667Z,100905.13
2022-11-29T14:20:51.220Z,100906.03
2022-11-29T14:23:16.637Z,100909.34
2022-11-29T14:25:50.539Z,100905.22
2022-11-29T14:28:03.203Z,100904.13
2022-11-29T14:30:33.789Z,100912.91
2022-11-29T14:32:45.975Z,100913.81
2022-11-29T14:34:55.184Z,100918.31
2022-11-29T14:37:03.739Z,100911.38
2022-11-29T14:39:22.000Z,100913.91
2022-11-29T14:41:31.578Z,100921.88
2022-11-29T14:43:36.401Z,100922.69
2022-11-29T14:45:39.625Z,100922.63
2022-11-29T14:47:49.654Z,100919.19
2022-11-29T14:49:55.694Z,100918.34
2022-11-29T14:52:10.856Z,100925.38
2022-11-29T14:54:18.205Z,100919.28
2022-11-29T14:56:43.426Z,100927.22
2022-11-29T14:58:46.406Z,100932.50
2022-11-29T15:00:56.864Z,100929.09
2022-11-29T15:03:05.416Z,100932.72
2022-11-29T15:05:17.830Z,100933.59
2022-11-29T15:07:28.813Z,100945.00
2022-11-29T15:09:34.967Z,100947.56
2022-11-29T15:11:47.869Z,100943.16
2022-11-29T15:13:57.283Z,100944.91
2022-11-29T15:16:15.170Z,100953.72
2022-11-29T15:18:28.006Z,100954.59
2022-11-29T15:20:55.158Z,100939.22
2022-11-29T15:23:01.129Z,100947.16
2022-11-29T15:25:08.337Z,100952.56
2022-11-29T15:27:14.035Z,100951.47
2022-11-29T15:29:19.577Z,100951.53
2022-11-29T15:31:23.086Z,100948.94
2022-11-29T15:33:27.005Z,100950.31
2022-11-29T15:35:30.094Z,100950.63
2022-11-29T15:37:44.934Z,100948.50
2022-11-29T15:39:48.179Z,100949.38
2022-11-29T15:41:51.405Z,100957.13
2022-11-29T15:43:57.183Z,100963.22
2022-11-29T15:46:01.186Z,100960.53
2022-11-29T15:48:15.163Z,100959.66
2022-11-29T15:50:27.104Z,100968.41
2022-11-29T15:52:33.820Z,100964.09
2022-11-29T15:54:40.878Z,100962.41
2022-11-29T15:56:46.869Z,100960.66
2022-11-29T15:58:53.656Z,100965.03
2022-11-29T16:00:57.164Z,100965.03
2022-11-29T16:03:01.956Z,100969.41
2022-11-29T16:05:09.689Z,100966.91
2022-11-29T16:07:13.676Z,100978.38
2022-11-29T16:09:20.373Z,100977.34
2022-11-29T16:11:28.681Z,100977.44
2022-11-29T16:13:38.472Z,100973.91
2022-11-29T16:15:41.723Z,100979.28
2022-11-29T16:17:44.605Z,100984.53
2022-11-29T16:19:47.843Z,100976.75
2022-11-29T16:22:03.207Z,100980.06
2022-11-29T16:24:14.624Z,100987.94
2022-11-29T16:26:20.083Z,100991.63
2022-11-29T16:28:25.376Z,100995.84
2022-11-29T16:30:31.248Z,100992.28
2022-11-29T16:32:35.860Z,100991.34
2022-11-29T16:34:42.980Z,100983.53
2022-11-29T16:36:58.088Z,100995.84
2022-11-29T16:39:06.678Z,101004.59
2022-11-29T16:41:22.421Z,101001.88
2022-11-29T16:43:48.549Z,100998.31
2022-11-29T16:46:26.985Z,101004.53
2022-11-29T16:48:31.395Z,100998.38
2022-11-29T16:50:34.978Z,100996.66
2022-11-29T16:52:37.951Z,101002.81
2022-11-29T16:54:42.342Z,101003.69
2022-11-29T16:56:45.305Z,100998.44
2022-11-29T16:59:25.276Z,101001.94
2022-11-29T17:01:18.615Z,101005.47
2022-11-29T17:03:22.495Z,100995.97
2022-11-29T17:05:25.519Z,101003.78
2022-11-29T17:07:31.059Z,101001.13
2022-11-29T17:09:34.417Z,101003.94
2022-11-29T17:11:37.484Z,101010.88
2022-11-29T17:13:40.686Z,101010.03
2022-11-29T17:15:45.299Z,101008.22
2022-11-29T17:17:48.338Z,101011.84
2022-11-29T17:19:51.247Z,101010.88
2022-11-29T17:21:54.156Z,101011.84
2022-11-29T17:23:57.933Z,101013.63
2022-11-29T17:26:01.855Z,101011.78
2022-11-29T17:28:04.990Z,101011.00
2022-11-29T17:30:11.292Z,101013.69
2022-11-29T17:32:15.902Z,101014.50
2022-11-29T17:34:19.368Z,101009.25
2022-11-29T17:36:22.640Z,101013.03
2022-11-29T17:38:25.642Z,101015.63
2022-11-29T17:40:28.552Z,101007.91
2022-11-29T17:42:32.522Z,101018.34
2022-11-29T17:44:35.795Z,101010.56
2022-11-29T17:46:39.096Z,101010.66
2022-11-29T17:48:46.293Z,101012.34
2022-11-29T17:50:49.216Z,101008.13
2022-11-29T17:52:52.139Z,101020.50
2022-11-29T17:54:55.331Z,101019.50
2022-11-29T17:56:58.347Z,101016.06
2022-11-29T17:59:04.864Z,101021.41
2022-11-29T18:01:09.399Z,101021.59
2022-11-29T18:03:12.744Z,101025.06
2022-11-29T18:05:18.064Z,101029.31
2022-11-29T18:07:20.983Z,101027.66
2022-11-29T18:09:24.214Z,101034.63
2022-11-29T18:11:28.694Z,101039.81
2022-11-29T18:13:31.685Z,101047.75
2022-11-29T18:15:34.626Z,101037.53
2022-11-29T18:17:37.549Z,101038.28
2022-11-29T18:19:40.458Z,101045.16
2022-11-29T18:21:45.064Z,101044.28
2022-11-29T18:23:48.154Z,101039.31
2022-11-29T18:25:57.459Z,101044.66
2022-11-29T18:28:00.519Z,101050.88
2022-11-29T18:30:03.478Z,101048.31
2022-11-29T18:32:06.418Z,101045.81
2022-11-29T18:34:10.865Z,101047.41
2022-11-29T18:36:15.575Z,101048.94
2022-11-29T18:38:19.824Z,101045.38
2022-11-29T18:40:23.665Z,101048.97
2022-11-29T18:42:26.612Z,101049.75
2022-11-29T18:44:30.324Z,101048.84
2022-11-29T18:46:35.881Z,101048.84
2022-11-29T18:48:39.062Z,101059.28
2022-11-29T18:50:42.016Z,101058.38
2022-11-29T18:52:44.943Z,101055.91
2022-11-29T18:54:49.670Z,101056.66
2022-11-29T18:56:52.802Z,101046.97
2022-11-29T18:58:58.677Z,101051.53
2022-11-29T19:01:06.255Z,101054.47
2022-11-29T19:03:09.549Z,101057.00
2022-11-29T19:05:12.439Z,101053.31
2022-11-29T19:07:15.403Z,101049.13
2022-11-29T19:09:20.898Z,101055.44
2022-11-29T19:11:26.729Z,101060.81
2022-11-29T19:13:29.801Z,101054.66
2022-11-29T19:15:32.811Z,101055.31
2022-11-29T19:17:40.167Z,101058.75
2022-11-29T19:19:46.264Z,101053.28
2022-11-29T19:21:49.411Z,101059.53
2022-11-29T19:23:53.259Z,101061.25
2022-11-29T19:25:56.274Z,101061.25
2022-11-29T19:28:00.586Z,101055.91
2022-11-29T19:30:03.584Z,101068.13
2022-11-29T19:32:08.590Z,101063.72
2022-11-29T19:34:12.136Z,101069.84
2022-11-29T19:36:16.552Z,101069.91
2022-11-29T19:38:19.514Z,101066.53
2022-11-29T19:40:22.935Z,101073.66
2022-11-29T19:42:26.070Z,101071.78
2022-11-29T19:44:35.903Z,101083.13
2022-11-29T19:46:51.575Z,101077.13
2022-11-29T19:48:55.539Z,101075.69
2022-11-29T19:51:01.000Z,101073.88
2022-11-29T19:53:04.357Z,101080.94
2022-11-29T19:55:08.009Z,101074.09
2022-11-29T19:57:11.082Z,101077.63
2022-11-29T19:59:14.057Z,101075.66
2022-11-29T20:01:20.545Z,101077.50
2022-11-29T20:03:23.590Z,101070.56
2022-11-29T20:05:27.269Z,101079.28
2022-11-29T20:07:31.224Z,101081.97
2022-11-29T20:09:34.757Z,101081.97
2022-11-29T20:11:37.758Z,101078.50
2022-11-29T20:13:42.053Z,101085.38
2022-11-29T20:15:45.074Z,101082.88
2022-11-29T20:17:49.643Z,101091.69
2022-11-29T20:19:53.583Z,101101.31
2022-11-29T20:21:56.638Z,101095.25
2022-11-29T20:24:01.223Z,101104.16
2022-11-29T20:26:05.745Z,101110.13
2022-11-29T20:28:08.899Z,101102.16
2022-11-29T20:30:13.189Z,101109.09
2022-11-29T20:32:16.855Z,101112.56
2022-11-29T20:34:22.029Z,101104.09
2022-11-29T20:36:37.617Z,101110.91
2022-11-29T20:38:45.038Z,101105.63
2022-11-29T20:41:02.525Z,101109.03
2022-11-29T20:43:13.618Z,101108.13
2022-11-29T20:45:18.117Z,101115.22
2022-11-29T20:47:23.069Z,101114.25
2022-11-29T20:49:28.955Z,101105.41
2022-11-29T20:51:36.592Z,101103.59
2022-11-29T20:53:40.779Z,101108.84
2022-11-29T20:55:48.065Z,101107.97
2022-11-29T20:57:51.974Z,101105.38
2022-11-29T20:59:55.031Z,101106.22
2022-11-29T21:02:01.386Z,101108.84
2022-11-29T21:04:04.380Z,101111.66
2022-11-29T21:06:09.495Z,101115.13
2022-11-29T21:08:12.464Z,101114.44
2022-11-29T21:10:16.731Z,101120.41
2022-11-29T21:12:19.976Z,101110.81
2022-11-29T21:14:23.725Z,101124.72
2022-11-29T21:16:29.330Z,101125.72
2022-11-29T21:18:33.829Z,101122.19
2022-11-29T21:20:37.300Z,101120.38
2022-11-29T21:22:49.488Z,101122.97
2022-11-29T21:24:57.308Z,101122.13
2022-11-29T21:27:01.190Z,101127.41
2022-11-29T21:29:15.246Z,101121.25
2022-11-29T21:31:19.118Z,101123.06
2022-11-29T21:33:22.538Z,101118.66
2022-11-29T21:35:26.201Z,101126.75
2022-11-29T21:37:31.202Z,101124.88
2022-11-29T21:39:35.844Z,101123.16
2022-11-29T21:41:39.251Z,101126.75
2022-11-29T21:44:05.562Z,101125.00
2022-11-29T21:46:07.969Z,101130.19
2022-11-29T21:48:31.113Z,101129.28
2022-11-29T21:50:34.049Z,101134.53
2022-11-29T21:52:37.103Z,101125.72
2022-11-29T21:54:41.843Z,101135.34
2022-11-29T21:56:44.989Z,101132.63
2022-11-29T21:58:48.181Z,101136.13
2022-11-29T22:00:53.325Z,101137.03
2022-11-29T22:02:57.397Z,101139.66
2022-11-29T22:05:00.350Z,101138.72
2022-11-29T22:07:03.368Z,101138.72
2022-11-29T22:09:07.644Z,101143.13
2022-11-29T22:11:13.580Z,101131.75
2022-11-29T22:13:16.597Z,101137.06
2022-11-29T22:15:24.525Z,101130.88
2022-11-29T22:17:29.080Z,101131.78
2022-11-29T22:19:33.694Z,101136.19
2022-11-29T22:21:36.798Z,101137.06
2022-11-29T22:23:39.946Z,101137.91
2022-11-29T22:25:42.767Z,101135.31
2022-11-29T22:27:46.988Z,101135.34
2022-11-29T22:29:50.154Z,101137.09
2022-11-29T22:31:54.824Z,101137.97
2022-11-29T22:33:59.512Z,101149.34
2022-11-29T22:36:06.402Z,101138.72
2022-11-29T22:38:09.454Z,101134.53
2022-11-29T22:40:13.777Z,101135.25
2022-11-29T22:42:16.815Z,101138.78
2022-11-29T22:44:21.033Z,101135.25
2022-11-29T22:46:25.330Z,101141.38
2022-11-29T22:48:32.045Z,101144.06
2022-11-29T22:50:38.492Z,101137.91
2022-11-29T22:52:41.334Z,101139.69
2022-11-29T22:54:46.927Z,101142.22
2022-11-29T22:56:50.337Z,101142.31
2022-11-29T22:58:53.427Z,101138.81
2022-11-29T23:01:04.642Z,101135.53
2022-11-29T23:03:07.648Z,101134.66
2022-11-29T23:05:10.822Z,101135.78
2022-11-29T23:07:13.934Z,101139.00
2022-11-29T23:09:21.023Z,101145.47
2022-11-29T23:11:26.363Z,101146.38
2022-11-29T23:13:29.234Z,101156.63
2022-11-29T23:15:32.087Z,101151.66
2022-11-29T23:17:37.984Z,101156.81
2022-11-29T23:19:41.496Z,101161.25
2022-11-29T23:21:46.591Z,101156.66
2022-11-29T23:23:55.784Z,101154.91
2022-11-29T23:25:59.718Z,101160.94
2022-11-29T23:28:02.947Z,101159.16
2022-11-29T23:30:07.475Z,101158.28
2022-11-29T23:32:10.393Z,101160.81
2022-11-29T23:34:15.019Z,101167.13
2022-11-29T23:36:19.130Z,101163.69
2022-11-29T23:38:23.650Z,101167.47
2022-11-29T23:40:26.562Z,101164.97
2022-11-29T23:42:29.770Z,101169.97
2022-11-29T23:44:32.711Z,101164.84
2022-11-29T23:46:36.162Z,101171.06
2022-11-29T23:48:39.119Z,101160.00
2022-11-29T23:50:43.698Z,101161.47
2022-11-29T23:52:46.530Z,101162.38
2022-11-29T23:54:50.131Z,101162.34
2022-11-29T23:56:53.029Z,101164.09
2022-11-29T23:58:55.983Z,101162.34
